Time;durP1;ratioP1;P1;durP2;ratioP2;P2;SDS_P1;SDS_P2;PMS_P1;PMS_P2;Temp;Humidity;BMP_temperature;BMP_pressure;BME280_temperature;BME280_humidity;BME280_pressure;Samples;Min_cycle;Max_cycle;Signal;HPM_P1;HPM_P2
2023/07/11 00:00:26;;;;;;;5.73;4.37;;;;;;;19.68;79.02;97978.28;6254307;28;20620;-40
2023/07/11 00:03:28;;;;;;;7.23;4.30;;;;;;;19.99;78.81;98013.75;6237112;28;20599;-40
2023/07/11 00:06:31;;;;;;;10.63;4.87;;;;;;;20.03;78.13;98001.25;6249821;28;20223;-40
2023/07/11 00:09:33;;;;;;;6.67;4.37;;;;;;;20.25;76.85;97993.34;6253165;28;20226;-40
2023/07/11 00:12:35;;;;;;;9.67;4.97;;;;;;;20.53;75.36;97999.63;6252701;28;20234;-40
2023/07/11 00:15:37;;;;;;;6.97;3.83;;;;;;;21.09;71.85;98003.16;6249520;28;20226;-40
2023/07/11 00:18:40;;;;;;;6.67;4.57;;;;;;;21.07;73.45;98019.69;6254149;28;20765;-40
2023/07/11 00:21:42;;;;;;;5.20;4.67;;;;;;;21.26;70.89;98008.75;6253839;28;20223;-40
2023/07/11 00:24:45;;;;;;;6.87;4.97;;;;;;;21.46;69.58;98004.84;6254175;28;20227;-41
2023/07/11 00:27:50;;;;;;;6.50;4.80;;;;;;;21.65;69.42;98007.41;6250153;28;20223;-40
2023/07/11 00:30:54;;;;;;;6.17;4.97;;;;;;;21.69;68.94;98018.44;6235393;28;20227;-40
2023/07/11 00:33:56;;;;;;;8.63;5.27;;;;;;;21.61;69.97;98018.03;6235385;28;20258;-40
2023/07/11 00:36:58;;;;;;;8.97;4.97;;;;;;;21.42;70.48;97998.41;6253010;28;20239;-41
2023/07/11 00:40:00;;;;;;;6.73;3.93;;;;;;;21.48;71.16;98016.19;6234671;28;20704;-40
2023/07/11 00:43:05;;;;;;;5.60;4.63;;;;;;;21.50;70.43;98005.84;6249475;28;20309;-40
2023/07/11 00:46:10;;;;;;;6.97;5.13;;;;;;;21.45;71.49;98011.38;6227661;28;20716;-53
2023/07/11 00:49:16;;;;;;;7.03;4.90;;;;;;;21.46;71.44;98007.53;6232802;28;20235;-53
2023/07/11 00:52:21;;;;;;;5.23;4.70;;;;;;;21.48;70.25;98012.69;6250678;28;20326;-53
2023/07/11 00:55:24;;;;;;;6.87;4.77;;;;;;;21.53;71.29;98018.00;6216535;28;20872;-54
2023/07/11 00:58:26;;;;;;;9.33;5.27;;;;;;;21.44;70.40;98006.25;6252224;28;20317;-54
2023/07/11 01:01:30;;;;;;;9.40;5.33;;;;;;;21.34;70.37;97980.19;6254192;28;20284;-54
2023/07/11 01:04:34;;;;;;;9.77;5.90;;;;;;;21.58;70.35;98012.47;6217483;28;20242;-54
2023/07/11 01:07:37;;;;;;;8.03;5.43;;;;;;;21.53;69.88;98001.72;6253686;28;20234;-53
2023/07/11 01:10:40;;;;;;;6.20;5.60;;;;;;;21.51;70.56;98007.44;6235767;28;20238;-54
2023/07/11 01:13:43;;;;;;;7.63;5.47;;;;;;;21.42;71.18;98003.84;6249062;28;20231;-53
2023/07/11 01:16:45;;;;;;;8.77;5.87;;;;;;;21.33;71.67;98001.06;6252020;28;20734;-53
2023/07/11 01:19:48;;;;;;;9.00;5.67;;;;;;;21.21;71.94;97995.31;6253630;28;20230;-53
2023/07/11 01:22:52;;;;;;;7.27;5.53;;;;;;;21.15;73.24;97999.25;6231223;28;20727;-53
2023/07/11 01:26:06;;;;;;;9.63;6.10;;;;;;;21.05;72.81;98000.25;6243568;28;20234;-54
2023/07/11 01:29:10;;;;;;;6.37;5.57;;;;;;;20.96;73.45;98004.75;6257174;28;20289;-52
2023/07/11 01:32:13;;;;;;;7.83;5.33;;;;;;;20.92;74.04;98006.47;6260898;28;20313;-53
2023/07/11 01:35:16;;;;;;;5.33;4.83;;;;;;;20.86;74.52;98004.97;6242186;28;20703;-51
2023/07/11 01:38:22;;;;;;;6.30;5.27;;;;;;;20.76;74.73;98005.97;6260176;28;20226;-54
2023/07/11 01:41:24;;;;;;;7.50;5.60;;;;;;;20.63;75.48;98009.44;6260633;28;20317;-53
2023/07/11 01:44:28;;;;;;;5.47;4.97;;;;;;;20.50;76.36;98002.13;6245129;28;20227;-53
2023/07/11 01:47:30;;;;;;;8.30;5.37;;;;;;;20.39;77.38;98006.06;6246719;28;20812;-51
2023/07/11 01:50:33;;;;;;;5.87;5.23;;;;;;;20.29;77.61;98001.63;6257816;28;20317;-53
2023/07/11 01:53:35;;;;;;;5.90;5.30;;;;;;;20.23;78.38;98000.91;6254237;28;20219;-53
2023/07/11 01:56:37;;;;;;;4.83;4.10;;;;;;;20.15;78.64;98012.44;6260690;28;20218;-53
2023/07/11 01:59:40;;;;;;;6.33;5.73;;;;;;;20.07;79.28;98013.09;6259829;28;20230;-53
2023/07/11 02:02:42;;;;;;;12.67;6.10;;;;;;;19.98;79.93;98017.56;6260246;28;20227;-53
2023/07/11 02:05:44;;;;;;;5.47;4.97;;;;;;;19.75;80.19;97997.63;6260078;28;20233;-53
2023/07/11 02:08:47;;;;;;;6.80;5.00;;;;;;;19.56;80.96;97993.03;6260909;28;20235;-53
2023/07/11 02:11:49;;;;;;;6.47;5.80;;;;;;;19.67;81.89;98012.63;6260375;28;20222;-53
2023/07/11 02:14:51;;;;;;;8.47;5.20;;;;;;;19.66;81.38;98023.75;6241951;28;20235;-53
2023/07/11 02:17:53;;;;;;;6.23;5.63;;;;;;;19.66;81.83;98016.44;6260902;28;20369;-52
2023/07/11 02:20:56;;;;;;;5.50;5.00;;;;;;;19.64;82.27;98020.50;6260754;28;20739;-53
2023/07/11 02:23:58;;;;;;;6.10;5.50;;;;;;;19.58;82.34;98019.75;6225911;28;20242;-54
2023/07/11 02:27:01;;;;;;;7.47;5.40;;;;;;;19.52;82.46;98013.63;6259604;28;20226;-51
2023/07/11 02:30:04;;;;;;;6.50;5.83;;;;;;;19.47;83.12;98021.81;6253873;28;20264;-54
2023/07/11 02:33:07;;;;;;;7.67;6.20;;;;;;;19.42;83.17;98021.88;6256096;28;20254;-52
2023/07/11 02:36:09;;;;;;;7.43;6.40;;;;;;;19.13;83.09;97986.84;6256742;28;20302;-53
2023/07/11 02:39:12;;;;;;;8.53;6.90;;;;;;;19.26;83.25;98026.69;6253631;28;20214;-53
2023/07/11 02:42:14;;;;;;;7.90;6.67;;;;;;;19.18;83.68;98023.81;6255650;28;20243;-52
2023/07/11 02:45:17;;;;;;;9.87;6.43;;;;;;;19.13;83.95;98016.56;6256015;28;20207;-53
2023/07/11 02:48:19;;;;;;;6.80;6.20;;;;;;;19.07;84.18;98018.53;6253463;28;20215;-54
2023/07/11 02:51:23;;;;;;;6.70;6.00;;;;;;;18.94;84.33;98011.13;6236756;28;20242;-53
2023/07/11 02:54:25;;;;;;;6.53;5.10;;;;;;;18.99;84.58;98024.56;6255891;28;20235;-54
2023/07/11 02:57:27;;;;;;;6.67;5.87;;;;;;;18.95;85.10;98034.31;6255305;28;20231;-53
2023/07/11 03:00:30;;;;;;;6.83;5.50;;;;;;;18.91;85.51;98037.88;6256357;28;20230;-53
2023/07/11 03:03:32;;;;;;;6.30;5.70;;;;;;;18.86;85.45;98035.22;6254992;28;20231;-53
2023/07/11 03:06:35;;;;;;;6.43;5.83;;;;;;;18.83;86.06;98038.53;6257438;28;20244;-53
2023/07/11 03:09:38;;;;;;;7.10;6.40;;;;;;;18.78;86.31;98042.06;6254134;28;20275;-52
2023/07/11 03:12:41;;;;;;;7.97;6.43;;;;;;;18.77;86.37;98038.56;6254494;28;20238;-53
2023/07/11 03:15:43;;;;;;;6.57;5.97;;;;;;;18.76;86.48;98031.53;6253677;28;20580;-53
2023/07/11 03:18:46;;;;;;;7.43;6.73;;;;;;;18.58;86.77;98004.47;6254249;28;20246;-53
2023/07/11 03:21:49;;;;;;;6.77;6.07;;;;;;;18.65;86.96;98024.63;6255251;28;20255;-51
2023/07/11 03:24:51;;;;;;;8.90;6.50;;;;;;;18.61;87.60;98028.19;6255004;28;20325;-53
2023/07/11 03:27:53;;;;;;;9.63;7.17;;;;;;;18.57;88.07;98036.06;6255959;28;20376;-53
2023/07/11 03:31:02;;;;;;;7.40;6.40;;;;;;;18.54;87.96;98036.63;6260068;28;20738;-53
2023/07/11 03:34:19;;;;;;;8.23;6.87;;;;;;;18.53;88.46;98029.63;6233669;28;20266;-53
2023/07/11 03:37:21;;;;;;;8.07;6.43;;;;;;;18.48;88.40;98022.38;6253619;28;20243;-53
2023/07/11 03:40:24;;;;;;;7.30;6.60;;;;;;;18.47;88.82;98026.16;6254862;28;20239;-53
2023/07/11 03:43:26;;;;;;;7.20;6.23;;;;;;;18.46;88.52;98021.03;6236921;28;20235;-52
2023/07/11 03:46:28;;;;;;;7.77;7.07;;;;;;;18.45;88.76;98036.41;6236154;28;20856;-53
2023/07/11 03:49:30;;;;;;;7.67;6.93;;;;;;;18.44;88.64;98034.81;6254154;28;20270;-53
2023/07/11 03:52:34;;;;;;;6.83;6.23;;;;;;;18.44;88.70;98037.50;6252954;28;20428;-53
2023/07/11 03:55:36;;;;;;;7.37;6.63;;;;;;;18.44;89.19;98037.50;6250672;28;20712;-53
2023/07/11 03:58:38;;;;;;;7.40;6.70;;;;;;;18.42;89.17;98026.22;6254012;28;20238;-54
2023/07/11 04:01:40;;;;;;;7.43;6.60;;;;;;;18.42;89.48;98036.19;6259460;28;20239;-53
2023/07/11 04:04:42;;;;;;;7.47;6.77;;;;;;;18.23;89.40;98009.94;6232962;28;20251;-53
2023/07/11 04:07:44;;;;;;;8.57;6.83;;;;;;;18.40;89.62;98046.44;6253985;28;20235;-53
2023/07/11 04:10:47;;;;;;;7.60;6.90;;;;;;;18.39;90.01;98053.75;6254289;28;20722;-53
2023/07/11 04:13:49;;;;;;;8.50;6.93;;;;;;;18.32;89.94;98028.97;6254408;28;20241;-53
2023/07/11 04:16:51;;;;;;;7.23;6.53;;;;;;;18.41;90.08;98043.47;6253405;28;20276;-54
2023/07/11 04:19:53;;;;;;;7.83;7.03;;;;;;;18.43;90.58;98040.50;6253628;28;20231;-54
2023/07/11 04:22:56;;;;;;;9.73;8.00;;;;;;;18.42;90.34;98042.41;6253305;28;20242;-53
2023/07/11 04:25:58;;;;;;;9.07;7.63;;;;;;;18.42;90.83;98046.97;6249033;28;20738;-52
2023/07/11 04:29:00;;;;;;;10.47;8.20;;;;;;;18.40;91.01;98046.44;6259031;28;20727;-54
2023/07/11 04:32:02;;;;;;;8.30;7.37;;;;;;;18.43;90.79;98046.69;6235906;28;20222;-54
2023/07/11 04:35:10;;;;;;;9.20;7.53;;;;;;;18.46;90.48;98045.31;6253814;28;20789;-52
2023/07/11 04:38:12;;;;;;;7.93;6.80;;;;;;;18.46;90.77;98046.13;6254300;28;20592;-53
2023/07/11 04:41:14;;;;;;;6.70;6.03;;;;;;;18.51;90.84;98047.97;6253274;28;20231;-55
2023/07/11 04:44:16;;;;;;;7.77;6.97;;;;;;;18.56;90.72;98048.72;6253529;28;20226;-55
2023/07/11 04:47:18;;;;;;;7.77;7.07;;;;;;;18.59;90.80;98055.44;6250234;28;20242;-55
2023/07/11 04:50:21;;;;;;;7.77;6.93;;;;;;;18.61;90.89;98047.06;6250856;28;20227;-57
2023/07/11 04:53:23;;;;;;;7.47;6.70;;;;;;;18.64;91.34;98051.91;6252924;28;20723;-55
2023/07/11 04:56:25;;;;;;;8.57;7.70;;;;;;;18.54;91.09;98039.31;6252496;28;20695;-56
2023/07/11 04:59:30;;;;;;;8.10;7.30;;;;;;;18.67;90.94;98052.16;6253687;28;20234;-56
2023/07/11 05:02:41;;;;;;;9.70;7.30;;;;;;;18.70;91.16;98056.19;6253642;28;20242;-57
2023/07/11 05:05:45;;;;;;;7.37;6.67;;;;;;;18.73;90.88;98064.53;6250460;28;20694;-57
2023/07/11 05:08:48;;;;;;;7.67;6.90;;;;;;;18.77;91.13;98056.66;6253094;28;20231;-57
2023/07/11 05:11:50;;;;;;;9.20;7.60;;;;;;;18.77;91.38;98052.06;6253126;28;20680;-57
2023/07/11 05:14:52;;;;;;;7.17;6.57;;;;;;;18.58;91.38;98012.56;6252382;28;20747;-56
2023/07/11 05:17:54;;;;;;;8.03;7.23;;;;;;;18.87;91.21;98061.16;6251372;28;20614;-57
2023/07/11 05:20:58;;;;;;;8.13;7.40;;;;;;;18.90;90.98;98061.38;6248162;28;20231;-40
2023/07/11 05:24:01;;;;;;;7.70;6.97;;;;;;;18.95;90.96;98057.81;6252668;28;20238;-41
2023/07/11 05:27:04;;;;;;;7.70;6.87;;;;;;;18.89;91.23;98038.16;6248003;28;20680;-41
2023/07/11 05:30:08;;;;;;;7.73;6.93;;;;;;;19.06;91.34;98051.19;6234028;28;20223;-43
2023/07/11 05:33:10;;;;;;;8.47;7.67;;;;;;;19.11;91.44;98056.53;6252528;28;20246;-41
2023/07/11 05:39:19;;;;;;;8.83;7.57;;;;;;;19.43;86.44;98041.59;6251019;28;20269;-41
2023/07/11 05:42:21;;;;;;;8.60;7.47;;;;;;;19.80;85.18;98057.03;6252491;28;20238;-40
2023/07/11 05:45:23;;;;;;;8.60;7.07;;;;;;;19.91;85.47;98063.94;6250829;28;20938;-40
2023/07/11 05:48:25;;;;;;;8.90;6.77;;;;;;;20.03;85.21;98063.47;6249386;28;20656;-41
2023/07/11 05:51:29;;;;;;;7.87;6.43;;;;;;;20.20;83.74;98054.84;6240349;28;20228;-43
2023/07/11 05:54:31;;;;;;;7.90;6.77;;;;;;;20.62;76.79;98053.88;6233564;28;20405;-41
2023/07/11 05:57:34;;;;;;;6.93;6.33;;;;;;;20.85;74.81;98044.00;6251210;28;20231;-43
2023/07/11 06:00:36;;;;;;;7.67;5.97;;;;;;;21.03;76.63;98063.94;6246932;28;20799;-44
2023/07/11 06:03:45;;;;;;;7.57;6.53;;;;;;;21.16;73.39;98055.03;6252464;28;20715;-43
2023/07/11 06:06:50;;;;;;;9.13;5.97;;;;;;;21.29;71.11;98058.84;6248732;28;20894;-42
2023/07/11 06:09:53;;;;;;;7.30;5.73;;;;;;;21.48;70.52;98064.19;6258201;28;20700;-42
2023/07/11 06:12:58;;;;;;;8.87;6.43;;;;;;;21.58;69.64;98061.25;6255010;28;20603;-41
2023/07/11 06:16:05;;;;;;;7.50;5.63;;;;;;;21.70;69.62;98060.72;6255313;28;20284;-41
2023/07/11 06:19:09;;;;;;;6.53;5.80;;;;;;;21.71;70.92;98059.59;6252746;28;20665;-41
2023/07/11 06:22:12;;;;;;;8.97;5.43;;;;;;;21.73;70.45;98058.22;6254503;28;20616;-42
2023/07/11 06:25:14;;;;;;;8.83;5.73;;;;;;;21.82;69.74;98060.97;6255044;28;21944;-42
2023/07/11 06:28:16;;;;;;;6.07;5.53;;;;;;;21.91;69.78;98070.00;6255461;28;20598;-41
2023/07/11 06:31:19;;;;;;;5.47;4.90;;;;;;;22.00;67.94;98056.50;6254103;28;20227;-41
2023/07/11 06:34:22;;;;;;;7.23;5.27;;;;;;;22.22;65.35;98064.72;6234115;28;20718;-40
2023/07/11 06:37:24;;;;;;;6.53;5.60;;;;;;;22.30;66.79;98061.22;6252143;28;20289;-42
2023/07/11 06:40:26;;;;;;;5.83;5.23;;;;;;;22.34;68.47;98067.66;6249803;28;20231;-42
2023/07/11 06:43:29;;;;;;;5.93;5.33;;;;;;;22.28;67.14;98057.25;6254356;28;20265;-42
2023/07/11 06:46:34;;;;;;;6.70;4.60;;;;;;;22.37;66.37;98067.03;6253814;28;20736;-41
2023/07/11 06:49:36;;;;;;;6.97;4.90;;;;;;;22.49;66.43;98069.19;6253144;28;20280;-38
2023/07/11 06:52:41;;;;;;;6.45;5.30;;;;;;;22.63;65.25;98060.97;6236115;28;20219;-36
2023/07/11 06:55:52;;;;;;;5.80;5.20;;;;;;;22.65;65.40;98064.16;6241347;28;20235;-37
2023/07/11 06:58:56;;;;;;;5.45;4.90;;;;;;;22.74;63.97;98062.31;6248890;28;20222;-37
2023/07/11 07:01:59;;;;;;;6.95;5.40;;;;;;;22.84;64.95;98067.47;6253646;28;20304;-38
2023/07/11 07:05:01;;;;;;;6.50;5.47;;;;;;;22.85;63.99;98050.03;6250151;28;20615;-37
2023/07/11 07:08:09;;;;;;;8.52;5.03;;;;;;;22.96;62.10;98060.69;6253270;28;20223;-37
2023/07/11 07:11:16;;;;;;;7.18;4.53;;;;;;;22.96;64.99;98057.97;6254561;28;20223;-37
2023/07/11 07:14:19;;;;;;;7.22;5.22;;;;;;;22.95;65.26;98056.34;6251456;28;20227;-37
2023/07/11 07:17:21;;;;;;;5.70;4.95;;;;;;;22.96;65.50;98055.25;6249532;28;20837;-37
2023/07/11 07:20:25;;;;;;;8.32;5.10;;;;;;;22.82;66.11;98042.53;6253069;28;20261;-37
2023/07/11 07:23:28;;;;;;;5.88;5.25;;;;;;;23.05;61.86;98062.31;6236567;28;20250;-38
2023/07/11 07:26:30;;;;;;;5.85;5.25;;;;;;;23.11;63.89;98060.28;6252513;28;20397;-37
2023/07/11 07:29:32;;;;;;;5.13;4.63;;;;;;;23.13;64.67;98061.56;6253836;28;20789;-37
2023/07/11 07:32:35;;;;;;;6.90;5.00;;;;;;;23.07;64.15;98060.09;6255729;28;20304;-38
2023/07/11 07:35:37;;;;;;;5.93;5.32;;;;;;;23.07;63.29;98046.50;6252320;28;20322;-38
2023/07/11 07:38:39;;;;;;;5.70;5.10;;;;;;;23.17;63.88;98056.28;6253830;28;20225;-38
2023/07/11 07:41:42;;;;;;;5.82;5.22;;;;;;;23.30;63.68;98058.09;6251290;28;20246;-38
2023/07/11 07:44:44;;;;;;;6.05;5.10;;;;;;;23.41;66.23;98053.97;6252183;28;20223;-38
2023/07/11 07:47:47;;;;;;;5.57;5.03;;;;;;;23.44;59.10;98036.19;6253726;28;20230;-38
2023/07/11 07:50:50;;;;;;;5.20;4.70;;;;;;;23.58;56.86;98055.91;6249692;28;20312;-38
2023/07/11 07:53:52;;;;;;;8.65;5.30;;;;;;;23.66;58.73;98057.09;6252223;28;20219;-38
2023/07/11 07:56:54;;;;;;;5.47;4.75;;;;;;;23.68;61.78;98058.34;6238914;28;20296;-38
2023/07/11 07:59:56;;;;;;;5.00;4.50;;;;;;;23.73;56.90;98054.69;6253238;28;20265;-37
2023/07/11 08:02:59;;;;;;;5.30;4.22;;;;;;;23.84;51.62;98053.28;6249315;28;20696;-38
2023/07/11 08:06:02;;;;;;;4.07;3.78;;;;;;;23.94;50.89;98057.59;6250067;28;20215;-38
2023/07/11 08:09:15;;;;;;;4.65;4.13;;;;;;;24.06;54.64;98049.56;6252923;28;20301;-38
2023/07/11 08:12:17;;;;;;;5.32;4.82;;;;;;;24.11;57.82;98052.13;6233999;28;20591;-38
2023/07/11 08:15:19;;;;;;;5.90;4.15;;;;;;;24.17;52.60;98047.31;6253221;28;20610;-37
2023/07/11 08:18:22;;;;;;;5.25;4.18;;;;;;;24.26;47.42;98052.75;6254028;28;20235;-38
2023/07/11 08:21:24;;;;;;;5.72;4.57;;;;;;;24.29;50.45;98061.09;6253489;28;20233;-37
2023/07/11 08:24:28;;;;;;;4.68;3.80;;;;;;;24.32;52.65;98057.72;6252820;28;20242;-41
2023/07/11 08:27:30;;;;;;;6.53;4.22;;;;;;;24.30;55.82;98053.72;6247650;28;20221;-37
2023/07/11 08:30:37;;;;;;;5.00;4.03;;;;;;;24.20;47.17;98058.38;6234005;28;20230;-38
2023/07/11 08:33:39;;;;;;;4.10;3.70;;;;;;;24.31;48.03;98047.16;6251463;28;20222;-37
2023/07/11 08:36:46;;;;;;;4.25;3.72;;;;;;;24.37;51.65;98052.13;6247019;28;20314;-38
2023/07/11 08:39:48;;;;;;;4.85;4.35;;;;;;;24.38;51.32;98052.94;6250410;28;20580;-38
2023/07/11 08:42:51;;;;;;;5.22;4.43;;;;;;;24.39;51.01;98055.34;6252065;28;20231;-37
2023/07/11 08:46:05;;;;;;;5.07;4.30;;;;;;;24.50;49.11;98050.34;6250252;28;20226;-37
2023/07/11 08:49:26;;;;;;;5.80;4.53;;;;;;;24.54;47.74;98053.25;6245724;28;20249;-38
2023/07/11 08:52:31;;;;;;;4.90;4.40;;;;;;;24.57;49.34;98050.66;6246916;28;20320;-37
2023/07/11 08:55:37;;;;;;;5.20;4.18;;;;;;;24.66;49.25;98048.69;6252447;28;20223;-37
2023/07/11 08:58:41;;;;;;;4.07;3.70;;;;;;;24.71;50.36;98047.72;6248166;28;20549;-38
2023/07/11 09:01:52;;;;;;;4.18;3.47;;;;;;;24.73;52.12;98048.22;6251715;28;20250;-38
2023/07/11 09:04:54;;;;;;;4.55;4.10;;;;;;;24.70;55.72;98044.22;6249453;28;20227;-38
2023/07/11 09:07:57;;;;;;;6.80;4.25;;;;;;;24.68;53.09;98040.22;6252342;28;20223;-38
2023/07/11 09:11:15;;;;;;;7.28;4.75;;;;;;;24.70;49.13;98040.69;6253760;28;20226;-38
2023/07/11 09:14:32;;;;;;;7.45;4.57;;;;;;;24.75;49.92;98035.06;6253840;28;20238;-38
2023/07/11 09:17:47;;;;;;;8.60;4.47;;;;;;;24.88;47.38;98036.00;6248891;28;20368;-38
2023/07/11 09:21:00;;;;;;;4.75;4.07;;;;;;;25.00;49.08;98038.81;6252418;28;20350;-38
2023/07/11 09:24:31;;;;;;;4.45;4.03;;;;;;;25.04;44.85;98031.59;6251461;28;20239;-38
2023/07/11 09:27:42;;;;;;;6.45;4.57;;;;;;;25.11;48.80;98033.81;6245371;28;20607;-38
2023/07/11 09:30:51;;;;;;;6.55;4.80;;;;;;;25.13;50.35;98029.66;6251730;28;20637;-38
2023/07/11 09:33:56;;;;;;;5.10;4.60;;;;;;;25.15;45.99;98029.31;6252947;28;20308;-36
2023/07/11 09:37:01;;;;;;;5.18;4.22;;;;;;;25.19;45.08;98030.25;6248027;28;20235;-36
2023/07/11 09:40:34;;;;;;;5.20;3.83;;;;;;;25.30;49.51;98023.28;6249681;28;20235;-37
2023/07/11 09:43:36;;;;;;;5.07;4.57;;;;;;;25.18;49.43;97995.94;6246528;28;20235;-37
2023/07/11 09:46:42;;;;;;;4.65;4.07;;;;;;;25.35;52.04;98028.56;6256018;28;20361;-37
2023/07/11 09:49:48;;;;;;;5.28;4.20;;;;;;;25.35;54.64;98016.84;6251015;28;20227;-36
2023/07/11 09:52:51;;;;;;;6.80;5.00;;;;;;;25.36;49.72;98016.50;6255924;28;20243;-36
2023/07/11 09:55:58;;;;;;;5.25;4.55;;;;;;;25.43;50.94;98011.34;6253128;28;20712;-36
2023/07/11 09:59:14;;;;;;;5.55;4.72;;;;;;;25.50;48.65;98010.00;6239872;28;20305;-36
2023/07/11 10:02:19;;;;;;;5.72;4.50;;;;;;;25.32;53.36;97985.59;6255833;28;20234;-36
2023/07/11 10:05:23;;;;;;;5.43;4.80;;;;;;;25.48;50.62;98013.88;6251384;28;20232;-36
2023/07/11 10:08:34;;;;;;;6.82;4.88;;;;;;;25.51;49.49;98003.41;6239508;28;20226;-36
2023/07/11 10:11:36;;;;;;;6.00;4.60;;;;;;;25.61;48.93;98013.94;6253590;28;20223;-37
2023/07/11 10:14:44;;;;;;;5.82;4.88;;;;;;;25.64;50.25;98008.63;6255941;28;20223;-36
2023/07/11 10:17:46;;;;;;;6.10;5.00;;;;;;;25.66;46.02;98006.34;6255043;28;20231;-36
2023/07/11 10:21:25;;;;;;;5.88;5.28;;;;;;;25.64;46.41;97991.47;6255120;28;20234;-36
2023/07/11 10:24:41;;;;;;;6.10;4.72;;;;;;;25.85;47.37;98007.84;6157859;28;21013;-36
2023/07/11 10:27:51;;;;;;;5.18;4.63;;;;;;;25.87;45.95;97983.75;6151325;28;20286;-36
2023/07/11 10:31:01;;;;;;;6.38;4.63;;;;;;;25.62;45.82;97922.78;6153200;28;20238;-36
2023/07/11 10:34:14;;;;;;;5.50;4.95;;;;;;;26.21;46.88;97990.84;6154779;28;20707;-36
2023/07/11 10:37:35;;;;;;;5.43;4.93;;;;;;;26.32;49.31;97988.47;6152689;28;20241;-36
2023/07/11 10:40:45;;;;;;;5.93;5.13;;;;;;;26.28;48.78;97971.94;6153456;28;20222;-36
2023/07/11 10:43:51;;;;;;;5.10;4.60;;;;;;;26.41;46.59;97980.97;6152383;28;20237;-36
2023/07/11 10:46:56;;;;;;;5.30;4.70;;;;;;;26.43;50.85;97978.72;6154852;28;20587;-36
2023/07/11 10:50:06;;;;;;;7.72;5.43;;;;;;;26.42;48.38;97975.19;6152765;28;20226;-39
2023/07/11 10:53:33;;;;;;;6.32;4.45;;;;;;;26.46;49.40;97973.41;6145490;28;20229;-37
2023/07/11 10:56:46;;;;;;;6.72;5.20;;;;;;;26.53;49.46;97972.81;6101053;28;20238;-36
2023/07/11 10:59:48;;;;;;;8.60;6.10;;;;;;;26.56;48.42;97966.69;6190576;28;20236;-36
2023/07/11 11:03:00;;;;;;;5.68;5.18;;;;;;;26.62;47.28;97970.00;6230477;28;20889;-38
2023/07/11 11:06:22;;;;;;;7.22;5.35;;;;;;;26.81;45.15;97953.06;6227699;28;20271;-37
2023/07/11 11:09:39;;;;;;;6.43;5.00;;;;;;;26.85;45.52;97949.28;6230532;28;20306;-39
2023/07/11 11:12:46;;;;;;;5.90;5.30;;;;;;;26.94;45.77;97940.94;6228391;28;20516;-36
2023/07/11 11:16:29;;;;;;;6.18;5.22;;;;;;;27.06;45.51;97940.16;6230048;28;20231;-36
2023/07/11 11:20:03;;;;;;;7.25;5.70;;;;;;;27.07;44.84;97936.28;6228715;28;20334;-38
2023/07/11 11:23:25;;;;;;;6.00;5.40;;;;;;;27.10;45.58;97936.44;6224840;28;20244;-38
2023/07/11 11:27:07;;;;;;;8.23;5.43;;;;;;;26.88;45.79;97906.78;6228062;28;20346;-53
2023/07/11 11:30:09;;;;;;;5.95;5.45;;;;;;;27.07;46.23;97923.41;6229568;28;20235;-51
2023/07/11 11:33:18;;;;;;;7.20;5.88;;;;;;;27.18;44.67;97921.00;6228816;28;20302;-51
2023/07/11 11:36:31;;;;;;;8.40;6.32;;;;;;;27.27;45.24;97913.47;6235984;28;20231;-53
2023/07/11 11:39:46;;;;;;;6.50;5.80;;;;;;;27.29;44.58;97892.06;6225933;28;20762;-51
2023/07/11 11:42:56;;;;;;;6.63;5.90;;;;;;;27.44;45.48;97915.97;6227359;28;20615;-51
2023/07/11 11:46:04;;;;;;;8.73;5.50;;;;;;;27.52;43.27;97911.47;6229672;28;20314;-51
2023/07/11 11:49:11;;;;;;;6.72;5.70;;;;;;;27.57;44.32;97910.44;6228124;28;20242;-53
2023/07/11 11:52:16;;;;;;;6.15;5.55;;;;;;;27.62;46.08;97910.97;6228111;28;20258;-51
2023/07/11 11:55:38;;;;;;;8.60;5.93;;;;;;;27.61;44.31;97883.97;6226673;28;20232;-52
2023/07/11 11:58:57;;;;;;;8.77;6.20;;;;;;;27.77;42.86;97902.03;6227871;28;20622;-52
2023/07/11 12:02:12;;;;;;;6.10;5.50;;;;;;;27.74;42.39;97897.28;6228490;28;20297;-51
2023/07/11 12:05:18;;;;;;;9.23;6.00;;;;;;;27.82;43.41;97890.03;6226858;28;20302;-37
2023/07/11 12:08:32;;;;;;;6.15;5.55;;;;;;;27.98;43.27;97892.81;6229413;28;20230;-37
2023/07/11 12:11:34;;;;;;;6.15;5.53;;;;;;;28.00;42.97;97854.91;6229105;28;20227;-38
2023/07/11 12:14:51;;;;;;;8.05;6.13;;;;;;;28.16;42.95;97880.38;6225013;28;20254;-38
2023/07/11 12:17:54;;;;;;;7.25;5.97;;;;;;;28.22;43.99;97876.22;6225020;28;20868;-38
2023/07/11 12:21:23;;;;;;;6.55;5.95;;;;;;;28.29;43.15;97879.16;6229710;28;20227;-38
2023/07/11 12:24:58;;;;;;;6.68;5.97;;;;;;;28.32;43.70;97863.13;6227275;28;20238;-38
2023/07/11 12:28:01;;;;;;;7.47;6.05;;;;;;;28.40;44.74;97860.25;6226167;28;20622;-37
2023/07/11 12:31:19;;;;;;;6.80;5.53;;;;;;;28.53;44.67;97869.97;6228904;28;20235;-38
2023/07/11 12:34:22;;;;;;;6.43;5.80;;;;;;;28.53;45.28;97864.50;6228557;28;20239;-38
2023/07/11 12:37:26;;;;;;;6.45;5.30;;;;;;;28.51;45.27;97858.56;6226040;28;20227;-38
2023/07/11 12:40:39;;;;;;;6.38;5.78;;;;;;;28.62;42.46;97856.09;6227235;28;20768;-37
2023/07/11 12:43:46;;;;;;;6.50;5.82;;;;;;;28.75;40.23;97856.75;6227080;28;20227;-38
2023/07/11 12:46:51;;;;;;;8.57;6.28;;;;;;;28.74;41.18;97847.75;6227660;28;20234;-38
2023/07/11 12:49:55;;;;;;;6.55;5.93;;;;;;;28.73;44.19;97842.63;6227034;28;20246;-52
2023/07/11 12:53:03;;;;;;;6.82;6.22;;;;;;;28.75;43.16;97845.78;6228584;28;20826;-51
2023/07/11 12:56:13;;;;;;;6.07;5.50;;;;;;;28.60;44.46;97835.66;6227029;28;20370;-52
2023/07/11 12:59:30;;;;;;;7.93;6.93;;;;;;;28.40;43.07;97821.88;6224003;28;20236;-38
2023/07/11 13:02:32;;;;;;;6.97;5.50;;;;;;;28.40;43.51;97834.81;6226034;28;20243;-37
2023/07/11 13:05:35;;;;;;;6.68;6.03;;;;;;;28.33;44.26;97832.66;6228659;28;20242;-37
2023/07/11 13:08:40;;;;;;;6.55;5.60;;;;;;;28.44;44.30;97833.75;6228683;28;20302;-37
2023/07/11 13:11:43;;;;;;;8.73;5.82;;;;;;;28.45;43.55;97834.53;6228712;28;20235;-37
2023/07/11 13:14:47;;;;;;;7.53;6.30;;;;;;;28.37;44.16;97832.75;6228333;28;20212;-37
2023/07/11 13:17:52;;;;;;;6.93;6.22;;;;;;;28.01;44.78;97779.81;6224474;28;20298;-37
2023/07/11 13:20:56;;;;;;;5.95;5.22;;;;;;;28.22;46.15;97826.09;6226928;28;20227;-37
2023/07/11 13:24:00;;;;;;;7.50;6.00;;;;;;;28.24;47.21;97823.81;6228318;28;20232;-37
2023/07/11 13:27:04;;;;;;;7.00;6.30;;;;;;;28.27;48.67;97812.94;6224481;28;20717;-38
2023/07/11 13:30:18;;;;;;;8.88;6.35;;;;;;;28.26;48.66;97813.28;6229191;28;20259;-38
2023/07/11 13:33:21;;;;;;;8.77;6.15;;;;;;;28.30;46.09;97819.66;6226315;28;22432;-37
2023/07/11 13:36:28;;;;;;;7.63;5.90;;;;;;;28.25;46.28;97803.50;6227673;28;20230;-37
2023/07/11 13:39:43;;;;;;;7.20;6.10;;;;;;;28.30;44.88;97808.69;6228289;28;20701;-37
2023/07/11 13:42:46;;;;;;;7.47;5.95;;;;;;;28.31;45.66;97812.22;6234809;28;21066;-37
2023/07/11 13:45:49;;;;;;;9.25;6.50;;;;;;;28.06;46.12;97779.56;6252163;28;20714;-37
2023/07/11 13:48:51;;;;;;;7.22;6.53;;;;;;;28.19;47.31;97804.91;6250375;28;20222;-37
2023/07/11 13:51:59;;;;;;;6.68;5.63;;;;;;;28.06;48.38;97785.03;6247715;28;20231;-38
2023/07/11 13:55:11;;;;;;;10.30;6.25;;;;;;;28.09;48.81;97799.97;6248377;28;20341;-37
2023/07/11 13:58:14;;;;;;;6.90;6.20;;;;;;;28.18;44.93;97798.66;6247674;28;20231;-37
2023/07/11 14:01:22;;;;;;;7.22;5.63;;;;;;;28.35;45.09;97800.25;6252034;28;20235;-37
2023/07/11 14:04:35;;;;;;;6.82;6.22;;;;;;;28.34;45.92;97786.91;6249023;28;20266;-37
2023/07/11 14:07:37;;;;;;;7.85;6.43;;;;;;;28.11;46.00;97762.84;6251027;28;20242;-38
2023/07/11 14:10:40;;;;;;;7.00;6.30;;;;;;;27.95;47.33;97751.91;6251195;28;20234;-37
2023/07/11 14:13:42;;;;;;;7.03;6.30;;;;;;;28.08;47.31;97779.19;6252629;28;20792;-37
2023/07/11 14:16:45;;;;;;;7.00;6.30;;;;;;;28.03;47.06;97770.13;6252111;28;20313;-37
2023/07/11 14:19:47;;;;;;;7.80;6.90;;;;;;;28.17;43.74;97772.38;6247134;28;20234;-38
2023/07/11 14:22:50;;;;;;;8.48;7.00;;;;;;;28.24;43.45;97771.78;6251197;28;20605;-37
2023/07/11 14:25:52;;;;;;;7.00;6.10;;;;;;;28.23;45.54;97765.50;6233303;28;20265;-37
2023/07/11 14:28:54;;;;;;;7.00;6.15;;;;;;;28.10;46.75;97761.25;6254145;28;20231;-37
2023/07/11 14:31:57;;;;;;;8.93;6.70;;;;;;;28.07;45.87;97753.75;6256004;28;20920;-37
2023/07/11 14:34:59;;;;;;;8.02;6.00;;;;;;;28.06;47.91;97751.38;6256910;28;20235;-36
2023/07/11 14:38:03;;;;;;;8.15;6.25;;;;;;;27.92;48.04;97751.81;6256480;28;20605;-36